Time;durP1;ratioP1;P1;durP2;ratioP2;P2;SDS_P1;SDS_P2;PMS_P1;PMS_P2;Temp;Humidity;BMP_temperature;BMP_pressure;BME280_temperature;BME280_humidity;BME280_pressure;Samples;Min_cycle;Max_cycle;Signal;HPM_P1;HPM_P2
2023/04/25 00:01:24;;;;;;;22.40;5.13;;;;;;;5.26;100.00;101236.53;5073221;28;20105;-77
2023/04/25 00:03:50;;;;;;;21.02;5.15;;;;;;;5.31;100.00;101233.34;5070778;28;20028;-77
2023/04/25 00:06:15;;;;;;;24.10;4.93;;;;;;;5.29;100.00;101240.81;5077506;28;20569;-76
2023/04/25 00:08:41;;;;;;;23.83;4.65;;;;;;;5.37;100.00;101238.16;5079534;28;20103;-76
2023/04/25 00:11:06;;;;;;;17.75;4.60;;;;;;;5.35;100.00;101232.88;5078312;28;20077;-77
2023/04/25 00:13:32;;;;;;;30.67;5.15;;;;;;;5.28;100.00;101233.69;5076362;28;20393;-77
2023/04/25 00:15:57;;;;;;;19.73;4.85;;;;;;;5.29;100.00;101240.81;5071980;28;20066;-77
2023/04/25 00:18:23;;;;;;;30.70;5.05;;;;;;;5.30;100.00;101246.06;5078496;28;20415;-77
2023/04/25 00:20:49;;;;;;;20.10;4.15;;;;;;;5.39;100.00;101241.59;5073224;28;20035;-77
2023/04/25 00:23:17;;;;;;;21.13;5.75;;;;;;;5.43;100.00;101248.41;5075262;28;20020;-76
2023/04/25 00:25:44;;;;;;;27.77;5.88;;;;;;;5.53;100.00;101250.06;5077141;28;20482;-76
2023/04/25 00:28:10;;;;;;;29.00;5.78;;;;;;;5.59;100.00;101243.13;5075940;28;20108;-76
2023/04/25 00:30:35;;;;;;;24.50;4.95;;;;;;;5.59;100.00;101248.56;5071344;28;20119;-77
2023/04/25 00:33:01;;;;;;;30.95;5.45;;;;;;;5.59;100.00;101252.16;5073830;28;20550;-77
2023/04/25 00:35:26;;;;;;;32.15;5.75;;;;;;;5.62;100.00;101248.28;5078749;28;20074;-76
2023/04/25 00:37:51;;;;;;;22.58;5.10;;;;;;;5.61;100.00;101254.72;5075231;28;20024;-76
2023/04/25 00:40:17;;;;;;;28.05;6.50;;;;;;;5.60;100.00;101255.75;5072940;28;20036;-77
2023/04/25 00:42:43;;;;;;;40.40;6.88;;;;;;;5.63;100.00;101250.84;5075505;28;20024;-76
2023/04/25 00:45:13;;;;;;;39.80;5.82;;;;;;;5.67;100.00;101252.22;5074016;28;20036;-75
2023/04/25 00:47:40;;;;;;;29.00;7.22;;;;;;;5.71;100.00;101252.78;5070748;28;20036;-76
2023/04/25 00:50:06;;;;;;;31.20;5.40;;;;;;;5.61;100.00;101260.16;5076390;28;20020;-76
2023/04/25 00:52:32;;;;;;;33.92;5.78;;;;;;;5.56;100.00;101255.16;5082514;28;20423;-75
2023/04/25 00:54:57;;;;;;;31.33;5.40;;;;;;;5.52;100.00;101269.22;5078439;28;20116;-77
2023/04/25 00:57:23;;;;;;;23.13;5.47;;;;;;;5.40;100.00;101256.88;5072216;28;20078;-77
2023/04/25 00:59:51;;;;;;;38.55;7.13;;;;;;;5.31;100.00;101260.50;5078040;28;20028;-77
2023/04/25 01:02:20;;;;;;;24.08;5.15;;;;;;;5.28;100.00;101261.69;5075318;28;20021;-76
2023/04/25 01:04:48;;;;;;;25.73;5.13;;;;;;;5.29;100.00;101268.81;5078485;28;20032;-76
2023/04/25 01:07:15;;;;;;;25.45;5.30;;;;;;;5.26;100.00;101262.84;5079379;28;20038;-77
2023/04/25 01:09:41;;;;;;;31.63;5.55;;;;;;;5.16;100.00;101257.47;5078639;28;20024;-76
2023/04/25 01:12:06;;;;;;;23.35;5.38;;;;;;;5.05;100.00;101260.41;5077859;28;20489;-76
2023/04/25 01:14:32;;;;;;;32.92;5.95;;;;;;;5.00;100.00;101265.44;5080106;28;20024;-77
2023/04/25 01:16:58;;;;;;;24.65;5.07;;;;;;;4.96;100.00;101265.91;5074688;28;20062;-77
2023/04/25 01:19:24;;;;;;;26.50;5.47;;;;;;;4.93;100.00;101269.75;5081708;28;20454;-76
2023/04/25 01:21:50;;;;;;;20.92;5.38;;;;;;;4.91;100.00;101265.50;5078180;28;20118;-75
2023/04/25 01:24:15;;;;;;;24.92;5.85;;;;;;;4.88;100.00;101273.91;5082654;28;20111;-76
2023/04/25 01:26:49;;;;;;;22.40;5.38;;;;;;;4.88;100.00;101273.91;5072336;28;20553;-76
2023/04/25 01:29:16;;;;;;;25.95;4.90;;;;;;;4.94;100.00;101274.19;5081400;28;20504;-76
2023/04/25 01:31:43;;;;;;;25.08;4.63;;;;;;;4.95;100.00;101281.31;5077268;28;20047;-76
2023/04/25 01:34:09;;;;;;;;;;;;;;;5.04;100.00;101282.25;5080791;28;20020;-76
2023/04/25 01:36:34;;;;;;;28.00;5.90;;;;;;;5.17;100.00;101274.59;5078194;28;19912;-76
2023/04/25 01:39:00;;;;;;;28.23;6.03;;;;;;;5.26;100.00;101276.41;5076792;28;20124;-76
2023/04/25 01:41:27;;;;;;;28.25;5.43;;;;;;;5.32;100.00;101282.09;5066687;28;20041;-76
2023/04/25 01:43:52;;;;;;;32.05;5.65;;;;;;;5.37;100.00;101287.06;5078809;28;20030;-77
2023/04/25 01:46:18;;;;;;;26.00;4.93;;;;;;;5.40;100.00;101284.03;5077510;28;20032;-76
2023/04/25 01:48:43;;;;;;;25.35;4.75;;;;;;;5.44;100.00;101288.19;5076838;28;20400;-76
2023/04/25 01:51:11;;;;;;;29.20;6.03;;;;;;;5.51;100.00;101286.53;5081282;28;20027;-76
2023/04/25 01:53:37;;;;;;;26.70;5.88;;;;;;;5.55;100.00;101286.06;5078305;28;20072;-78
2023/04/25 01:56:03;;;;;;;30.90;5.40;;;;;;;5.62;100.00;101283.59;5078543;28;20033;-77
2023/04/25 01:58:29;;;;;;;27.40;5.90;;;;;;;5.62;100.00;101295.28;5078395;28;20510;-76
2023/04/25 02:00:54;;;;;;;28.17;6.15;;;;;;;5.65;100.00;101291.41;5077195;28;20031;-78
2023/04/25 02:03:20;;;;;;;16.42;5.45;;;;;;;5.67;100.00;101283.97;5083281;28;20036;-76
2023/04/25 02:05:45;;;;;;;19.80;4.28;;;;;;;5.83;100.00;101295.88;5081629;28;20043;-77
2023/04/25 02:08:11;;;;;;;22.63;4.28;;;;;;;5.78;100.00;101286.47;5080346;28;20038;-78
2023/04/25 02:10:36;;;;;;;27.20;5.03;;;;;;;5.80;100.00;101292.63;5076184;28;20024;-77
2023/04/25 02:13:04;;;;;;;28.13;5.05;;;;;;;5.88;100.00;101287.28;5074528;28;20024;-77
2023/04/25 02:15:29;;;;;;;18.00;4.82;;;;;;;5.88;100.00;101298.16;5074463;28;20111;-77
2023/04/25 02:17:55;;;;;;;21.60;3.95;;;;;;;5.94;100.00;101292.09;5080007;28;20107;-76
2023/04/25 02:20:22;;;;;;;30.38;4.00;;;;;;;5.89;100.00;101291.69;5075617;28;20051;-75
2023/04/25 02:22:48;;;;;;;20.13;5.00;;;;;;;5.92;100.00;101292.22;5079558;28;20537;-76
2023/04/25 02:25:13;;;;;;;25.35;4.18;;;;;;;5.90;100.00;101286.09;5077472;28;20029;-75
2023/04/25 02:27:38;;;;;;;18.70;4.45;;;;;;;5.87;100.00;101285.56;5075393;28;20377;-76
2023/04/25 02:30:06;;;;;;;23.98;5.03;;;;;;;5.85;100.00;101291.16;5079534;28;20063;-76
2023/04/25 02:32:32;;;;;;;22.30;3.90;;;;;;;5.83;100.00;101295.03;5084777;28;20159;-76
2023/04/25 02:35:03;;;;;;;16.80;4.25;;;;;;;5.82;100.00;101299.59;5081633;28;20079;-76
2023/04/25 02:37:29;;;;;;;16.75;5.32;;;;;;;5.84;99.48;101296.75;5078468;28;20095;-75
2023/04/25 02:39:55;;;;;;;24.13;4.40;;;;;;;5.86;99.63;101302.88;5078108;28;20050;-76
2023/04/25 02:42:20;;;;;;;15.45;3.95;;;;;;;5.84;100.00;101300.31;5079064;28;20034;-76
2023/04/25 02:44:45;;;;;;;14.82;3.53;;;;;;;5.84;100.00;101300.31;5075670;28;20417;-77
2023/04/25 02:47:12;;;;;;;20.52;4.07;;;;;;;5.88;97.63;101298.16;5071476;28;20040;-77
2023/04/25 02:49:37;;;;;;;23.80;4.03;;;;;;;5.88;98.07;101303.59;5079728;28;20034;-73
2023/04/25 02:52:03;;;;;;;14.30;3.75;;;;;;;5.92;97.97;101303.09;5076674;28;20025;-73
2023/04/25 02:54:29;;;;;;;16.83;4.20;;;;;;;5.90;97.62;101306.97;5081146;28;20492;-73
2023/04/25 02:56:54;;;;;;;23.50;4.68;;;;;;;5.85;98.64;101304.75;5076689;28;20032;-69
2023/04/25 02:59:19;;;;;;;18.08;3.95;;;;;;;5.83;97.19;101300.47;5076433;28;20380;-70
2023/04/25 03:01:45;;;;;;;25.05;4.13;;;;;;;5.82;96.95;101294.16;5069235;28;20016;-70
2023/04/25 03:04:10;;;;;;;22.73;4.10;;;;;;;5.81;97.30;101303.34;5081581;28;20031;-70
2023/04/25 03:06:36;;;;;;;21.83;4.15;;;;;;;5.79;97.81;101304.47;5077666;28;20535;-68
2023/04/25 03:09:01;;;;;;;17.30;3.53;;;;;;;5.97;94.03;101318.94;5059314;28;20032;-70
2023/04/25 03:11:27;;;;;;;12.43;2.95;;;;;;;6.11;92.36;101319.25;5074000;28;20021;-69
2023/04/25 03:13:52;;;;;;;16.55;2.97;;;;;;;6.05;90.39;101316.31;5080248;28;20020;-69
2023/04/25 03:16:18;;;;;;;11.95;2.28;;;;;;;6.04;92.43;101317.31;5072897;28;20056;-70
2023/04/25 03:18:43;;;;;;;15.43;3.22;;;;;;;5.96;92.35;101323.53;5075931;28;20032;-69
2023/04/25 03:21:09;;;;;;;8.07;2.35;;;;;;;5.95;85.68;101310.97;5074171;28;20050;-69
2023/04/25 03:23:34;;;;;;;12.35;2.85;;;;;;;6.00;86.85;101303.19;5080225;28;20027;-70
2023/04/25 03:26:00;;;;;;;13.02;2.20;;;;;;;6.12;83.44;101303.78;5075522;28;20029;-70
2023/04/25 03:28:25;;;;;;;10.00;2.38;;;;;;;6.11;82.18;101308.38;5078484;28;20484;-69
2023/04/25 03:30:51;;;;;;;16.50;3.03;;;;;;;6.11;85.51;101304.78;5071806;28;20028;-70
2023/04/25 03:33:16;;;;;;;11.90;2.50;;;;;;;6.01;86.59;101306.75;5077506;28;20016;-69
2023/04/25 03:35:42;;;;;;;10.48;2.30;;;;;;;6.01;87.11;101306.75;5080412;28;20028;-70
2023/04/25 03:38:08;;;;;;;13.70;2.83;;;;;;;5.99;88.82;101309.59;5073585;28;20037;-69
2023/04/25 03:40:33;;;;;;;14.25;3.42;;;;;;;5.95;89.17;101312.81;5073498;28;20042;-69
2023/04/25 03:42:59;;;;;;;8.88;2.35;;;;;;;5.95;88.58;101318.25;5079204;28;20500;-69
2023/04/25 03:45:25;;;;;;;9.77;2.40;;;;;;;5.90;90.06;101328.72;5077138;28;20039;-69
2023/04/25 03:47:50;;;;;;;10.80;2.70;;;;;;;5.88;89.95;101322.63;5075116;28;20105;-69
2023/04/25 03:50:16;;;;;;;13.18;2.30;;;;;;;5.95;89.75;101331.84;5073713;28;20036;-68
2023/04/25 03:52:42;;;;;;;13.38;3.42;;;;;;;5.93;90.33;101332.00;5074527;28;20024;-69
2023/04/25 03:55:08;;;;;;;10.00;2.50;;;;;;;5.94;90.19;101328.25;5078685;28;20044;-70
2023/04/25 03:57:33;;;;;;;15.77;2.78;;;;;;;5.96;91.77;101337.13;5077433;28;20123;-69
2023/04/25 03:59:59;;;;;;;13.65;2.45;;;;;;;6.01;91.93;101333.94;5080961;28;20025;-70
2023/04/25 04:02:25;;;;;;;13.32;2.65;;;;;;;5.95;93.43;101331.84;5076915;28;20024;-70
2023/04/25 04:04:50;;;;;;;11.20;2.72;;;;;;;5.94;92.59;101338.28;5077152;28;20415;-70
2023/04/25 04:07:19;;;;;;;18.45;3.83;;;;;;;5.97;92.38;101343.41;5075863;28;20111;-70
2023/04/25 04:09:45;;;;;;;13.57;2.72;;;;;;;5.96;92.46;101334.41;5078744;28;20046;-69
2023/04/25 04:12:10;;;;;;;15.82;3.33;;;;;;;5.90;93.94;101337.75;5077517;28;20476;-70
2023/04/25 04:14:35;;;;;;;23.73;3.28;;;;;;;5.86;95.59;101330.91;5078899;28;20031;-69
2023/04/25 04:17:01;;;;;;;18.42;2.97;;;;;;;5.82;97.05;101336.81;5070181;28;20031;-69
2023/04/25 04:19:27;;;;;;;11.23;3.13;;;;;;;5.77;95.73;101337.25;5072460;28;20046;-69
2023/04/25 04:21:52;;;;;;;10.65;2.88;;;;;;;5.76;95.28;101340.13;5069135;28;20052;-69
2023/04/25 04:24:17;;;;;;;17.33;3.13;;;;;;;5.77;96.68;101347.28;5078568;28;20060;-69
2023/04/25 04:26:44;;;;;;;17.63;3.45;;;;;;;5.74;98.12;101343.00;5072702;28;20024;-69
2023/04/25 04:29:10;;;;;;;15.40;4.03;;;;;;;5.73;97.87;101344.00;5077876;28;20095;-69
2023/04/25 04:31:36;;;;;;;8.68;3.05;;;;;;;5.70;98.24;101338.88;5072464;28;20054;-69
2023/04/25 04:34:03;;;;;;;13.52;3.30;;;;;;;5.66;99.10;101339.34;5081216;28;20477;-69
2023/04/25 04:36:29;;;;;;;12.18;4.00;;;;;;;5.69;98.62;101342.59;5078292;28;20079;-70
2023/04/25 04:38:56;;;;;;;13.10;2.78;;;;;;;5.69;98.42;101344.44;5080794;28;20044;-70
2023/04/25 04:41:23;;;;;;;12.88;3.40;;;;;;;5.72;99.40;101349.59;5080406;28;20032;-69
2023/04/25 04:43:48;;;;;;;15.23;3.33;;;;;;;5.78;97.99;101357.13;5083324;28;20028;-69
2023/04/25 04:46:14;;;;;;;14.70;3.47;;;;;;;5.80;98.52;101361.44;5072782;28;20048;-69
2023/04/25 04:48:39;;;;;;;13.75;3.53;;;;;;;5.80;99.75;101352.41;5083666;28;20028;-70
2023/04/25 04:51:06;;;;;;;10.52;2.95;;;;;;;5.83;100.00;101365.72;5076679;28;20036;-69
2023/04/25 04:53:32;;;;;;;11.45;3.22;;;;;;;5.84;100.00;101370.13;5083649;28;20035;-69
2023/04/25 04:55:57;;;;;;;12.93;4.63;;;;;;;5.86;100.00;101368.09;5081037;28;20547;-70
2023/04/25 04:58:23;;;;;;;16.15;4.32;;;;;;;5.90;100.00;101370.38;5077750;28;20060;-70
2023/04/25 05:00:48;;;;;;;13.20;4.57;;;;;;;5.94;100.00;101377.19;5070385;28;20031;-70
2023/04/25 05:03:14;;;;;;;17.77;4.65;;;;;;;5.95;99.79;101380.78;5067350;28;20016;-70
2023/04/25 05:05:42;;;;;;;13.25;3.75;;;;;;;5.99;99.28;101384.91;5075173;28;20115;-69
2023/04/25 05:08:07;;;;;;;14.30;4.13;;;;;;;6.03;100.00;101381.72;5077950;28;20040;-69
2023/04/25 05:10:33;;;;;;;12.48;3.42;;;;;;;6.08;100.00;101384.81;5078841;28;20418;-69
2023/04/25 05:12:58;;;;;;;12.32;3.20;;;;;;;6.10;100.00;101393.66;5078480;28;20017;-70
2023/04/25 05:15:24;;;;;;;13.18;3.60;;;;;;;6.12;100.00;101393.53;5063885;28;20114;-69
2023/04/25 05:17:49;;;;;;;14.13;3.20;;;;;;;6.16;100.00;101400.38;5079724;28;20058;-72
2023/04/25 05:20:15;;;;;;;15.18;4.38;;;;;;;6.21;99.69;101398.91;5079372;28;20032;-70
2023/04/25 05:22:41;;;;;;;14.35;4.53;;;;;;;6.23;99.86;101404.16;5072626;28;20393;-69
2023/04/25 05:25:10;;;;;;;21.23;5.03;;;;;;;6.31;98.27;101405.09;5072480;28;20128;-70
2023/04/25 05:27:36;;;;;;;21.60;3.97;;;;;;;6.33;99.29;101402.22;5077547;28;20085;-70
2023/04/25 05:30:01;;;;;;;20.38;4.47;;;;;;;6.41;98.69;101405.03;5079616;28;20044;-70
2023/04/25 05:32:27;;;;;;;11.23;4.13;;;;;;;6.43;99.28;101412.03;5077520;28;20021;-69
2023/04/25 05:34:52;;;;;;;15.70;3.92;;;;;;;6.45;99.96;101420.00;5075177;28;20109;-69
2023/04/25 05:37:18;;;;;;;14.25;4.55;;;;;;;6.41;98.76;101421.34;5078932;28;20036;-69
2023/04/25 05:39:43;;;;;;;17.35;3.38;;;;;;;6.37;99.11;101426.25;5077447;28;20332;-70
2023/04/25 05:42:08;;;;;;;11.07;3.75;;;;;;;6.40;97.75;101438.69;5079533;28;20024;-70
2023/04/25 05:44:34;;;;;;;13.35;3.88;;;;;;;6.43;98.32;101443.81;5072605;28;20056;-69
2023/04/25 05:46:59;;;;;;;15.40;3.55;;;;;;;6.46;97.78;101443.50;5076267;28;20108;-70
2023/04/25 05:49:25;;;;;;;21.60;3.50;;;;;;;6.48;97.01;101445.06;5080722;28;20111;-69
2023/04/25 05:51:50;;;;;;;13.60;3.25;;;;;;;6.50;97.21;101442.16;5075110;28;20059;-69
2023/04/25 05:54:15;;;;;;;14.30;3.10;;;;;;;6.51;96.65;101441.16;5067083;28;20080;-69
2023/04/25 05:56:41;;;;;;;17.25;3.58;;;;;;;6.50;94.79;101447.59;5070714;28;20044;-70
2023/04/25 05:59:06;;;;;;;17.65;3.53;;;;;;;6.53;95.30;101452.75;5074539;28;20055;-69
2023/04/25 06:01:32;;;;;;;13.48;3.60;;;;;;;6.49;95.34;101451.34;5061677;28;20052;-70
2023/04/25 06:03:57;;;;;;;15.48;2.50;;;;;;;6.43;95.24;101438.34;5070698;28;20028;-70
2023/04/25 06:06:22;;;;;;;12.23;3.40;;;;;;;6.50;94.36;101444.88;5069732;28;20103;-69
2023/04/25 06:08:48;;;;;;;16.38;4.05;;;;;;;6.54;95.52;101459.88;5074321;28;20075;-69
2023/04/25 06:11:13;;;;;;;22.45;3.17;;;;;;;6.61;94.23;101450.94;5069742;28;20024;-69
2023/04/25 06:13:39;;;;;;;11.13;3.15;;;;;;;6.71;93.96;101459.88;5078579;28;20469;-69
2023/04/25 06:16:04;;;;;;;19.38;3.72;;;;;;;6.80;93.91;101456.22;5068579;28;20497;-69
2023/04/25 06:18:30;;;;;;;17.30;3.90;;;;;;;6.90;92.64;101458.84;5075834;28;20552;-69
2023/04/25 06:20:55;;;;;;;19.23;3.15;;;;;;;6.99;90.06;101468.78;5071567;28;20530;-70
2023/04/25 06:23:21;;;;;;;18.83;3.17;;;;;;;7.13;88.98;101468.19;5081611;28;20492;-69
2023/04/25 06:25:46;;;;;;;14.80;3.55;;;;;;;7.16;88.33;101473.31;5076790;28;20032;-70
2023/04/25 06:28:12;;;;;;;17.83;4.00;;;;;;;7.13;87.41;101482.66;5074485;28;20032;-70
2023/04/25 06:30:37;;;;;;;17.23;3.35;;;;;;;7.21;87.13;101482.72;5066491;28;20588;-69
2023/04/25 06:33:02;;;;;;;15.93;2.85;;;;;;;7.21;87.13;101481.88;5079727;28;20110;-70
2023/04/25 06:35:28;;;;;;;17.08;3.72;;;;;;;7.49;87.00;101489.72;5072034;28;20377;-70
2023/04/25 06:37:53;;;;;;;15.30;3.05;;;;;;;7.88;87.05;101484.59;5078083;28;20119;-69
2023/04/25 06:40:18;;;;;;;12.05;2.13;;;;;;;7.88;82.77;101488.19;5072771;28;20405;-70
2023/04/25 06:42:44;;;;;;;12.80;2.70;;;;;;;8.41;79.59;101491.47;5068727;28;20068;-70
2023/04/25 06:45:10;;;;;;;12.15;2.53;;;;;;;9.30;75.78;101489.59;5072493;28;20031;-70
2023/04/25 06:47:35;;;;;;;8.30;2.20;;;;;;;8.66;77.44;101498.66;5076758;28;20067;-70
2023/04/25 06:50:00;;;;;;;12.50;2.58;;;;;;;8.44;79.14;101509.38;5062357;28;20102;-70
2023/04/25 06:52:26;;;;;;;14.20;2.30;;;;;;;8.39;80.64;101514.50;5070877;28;20032;-70
2023/04/25 06:54:51;;;;;;;10.82;2.63;;;;;;;7.81;79.91;101519.00;5070711;28;20044;-70
2023/04/25 06:57:16;;;;;;;11.32;2.30;;;;;;;7.58;80.65;101524.16;5078221;28;20028;-70
2023/04/25 06:59:42;;;;;;;9.55;2.20;;;;;;;7.43;79.16;101524.94;5074463;28;20459;-69
2023/04/25 07:02:07;;;;;;;10.98;2.83;;;;;;;7.46;79.82;101521.88;5068787;28;20024;-70
2023/04/25 07:04:33;;;;;;;6.38;1.98;;;;;;;7.53;79.96;101525.69;5071409;28;20040;-71
2023/04/25 07:07:00;;;;;;;9.50;2.60;;;;;;;7.88;78.37;101520.06;5078211;28;20024;-70
2023/04/25 07:09:27;;;;;;;7.40;1.65;;;;;;;7.74;79.20;101524.25;5065533;28;20105;-70
2023/04/25 07:11:52;;;;;;;6.45;1.70;;;;;;;7.63;79.34;101524.53;5069309;28;20025;-70
2023/04/25 07:14:17;;;;;;;7.03;2.00;;;;;;;7.61;79.32;101534.75;5073963;28;20614;-70
2023/04/25 07:16:43;;;;;;;5.20;1.60;;;;;;;7.60;79.13;101533.06;5068219;28;20035;-70
2023/04/25 07:19:08;;;;;;;7.05;1.52;;;;;;;7.48;77.91;101528.88;5078181;28;20059;-70
2023/04/25 07:21:33;;;;;;;5.70;1.77;;;;;;;7.52;78.26;101535.72;5065998;28;20477;-70
2023/04/25 07:23:59;;;;;;;6.40;1.75;;;;;;;7.64;77.14;101539.88;5064408;28;20058;-70
2023/04/25 07:26:24;;;;;;;7.97;2.00;;;;;;;7.72;77.72;101541.78;5067363;28;20441;-70
2023/04/25 07:28:51;;;;;;;5.80;2.03;;;;;;;7.75;77.25;101536.03;5063493;28;20028;-70
2023/04/25 07:31:18;;;;;;;7.10;2.22;;;;;;;7.85;77.21;101539.50;5070027;28;20046;-70
2023/04/25 07:33:43;;;;;;;;;;;;;;;7.81;76.54;101535.38;5078888;28;20027;-70
2023/04/25 07:36:09;;;;;;;8.23;1.70;;;;;;;8.01;77.32;101539.56;5069459;28;19920;-69
2023/04/25 07:38:34;;;;;;;10.07;2.65;;;;;;;8.07;76.15;101547.09;5075496;28;20025;-69
2023/04/25 07:41:00;;;;;;;8.95;1.63;;;;;;;8.50;78.15;101539.56;5074263;28;21479;-69
2023/04/25 07:43:25;;;;;;;6.43;2.50;;;;;;;8.71;77.05;101544.59;5074282;28;20032;-69
2023/04/25 07:45:51;;;;;;;9.40;2.28;;;;;;;8.82;74.60;101542.38;5073409;28;20020;-69
2023/04/25 07:48:20;;;;;;;6.97;1.65;;;;;;;8.94;74.23;101549.22;5078866;28;20052;-69
2023/04/25 07:50:46;;;;;;;13.02;2.47;;;;;;;8.83;74.11;101551.44;5071793;28;20127;-70
2023/04/25 07:53:11;;;;;;;6.25;1.75;;;;;;;9.13;74.29;101553.50;5074174;28;20116;-69
2023/04/25 07:55:39;;;;;;;11.32;2.05;;;;;;;9.31;75.34;101562.38;5077215;28;20072;-70
2023/04/25 07:58:08;;;;;;;9.57;2.15;;;;;;;9.15;72.12;101562.38;5071884;28;20132;-71
2023/04/25 08:00:34;;;;;;;10.75;2.10;;;;;;;9.04;71.85;101549.06;5071416;28;20029;-71
2023/04/25 08:02:59;;;;;;;10.77;2.55;;;;;;;8.77;71.50;101568.50;5077221;28;20024;-71
2023/04/25 08:05:25;;;;;;;9.60;2.88;;;;;;;8.86;73.93;101567.50;5075870;28;20036;-70
2023/04/25 08:07:50;;;;;;;19.33;2.70;;;;;;;8.89;71.87;101567.13;5078530;28;20037;-70
2023/04/25 08:10:16;;;;;;;8.70;2.10;;;;;;;9.23;73.95;101562.41;5076383;28;20050;-69
2023/04/25 08:12:41;;;;;;;8.60;2.47;;;;;;;9.70;71.87;101568.81;5072752;28;20086;-70
2023/04/25 08:15:07;;;;;;;12.07;2.40;;;;;;;9.79;68.89;101570.50;5078596;28;20028;-70
2023/04/25 08:17:33;;;;;;;12.30;2.03;;;;;;;9.85;69.65;101583.50;5075070;28;20043;-70
2023/04/25 08:19:58;;;;;;;13.52;2.78;;;;;;;9.38;68.33;101580.66;5070539;28;20036;-70
2023/04/25 08:22:24;;;;;;;4.40;1.80;;;;;;;9.48;69.03;101591.41;5068879;28;20032;-70
2023/04/25 08:24:49;;;;;;;14.30;2.60;;;;;;;9.79;68.49;101585.06;5065173;28;20029;-70
2023/04/25 08:27:14;;;;;;;11.07;1.83;;;;;;;9.87;68.61;101582.28;5062626;28;20094;-70
2023/04/25 08:29:41;;;;;;;11.02;2.28;;;;;;;9.76;67.12;101585.41;5072259;28;20107;-70
2023/04/25 08:32:07;;;;;;;6.50;1.92;;;;;;;9.91;67.66;101591.00;5078099;28;20134;-70
2023/04/25 08:34:32;;;;;;;8.77;1.73;;;;;;;10.39;67.48;101593.59;5071168;28;20028;-70
2023/04/25 08:36:57;;;;;;;5.18;1.48;;;;;;;10.34;64.14;101585.94;5065132;28;20478;-70
2023/04/25 08:39:23;;;;;;;9.05;1.70;;;;;;;11.10;63.74;101595.06;5067852;28;20043;-71
2023/04/25 08:41:49;;;;;;;12.65;2.55;;;;;;;10.74;63.49;101587.59;5061700;28;20458;-70
2023/04/25 08:44:16;;;;;;;10.53;1.63;;;;;;;10.53;63.78;101601.09;5071494;28;20440;-70
2023/04/25 08:46:41;;;;;;;9.25;1.70;;;;;;;9.85;65.88;101608.13;5066468;28;20036;-70
2023/04/25 08:49:11;;;;;;;11.97;2.87;;;;;;;9.43;67.90;101605.59;5072761;28;20394;-70
2023/04/25 08:51:45;;;;;;;15.27;2.42;;;;;;;9.23;67.62;101626.09;5064351;28;20043;-70
2023/04/25 08:54:12;;;;;;;10.73;2.17;;;;;;;9.01;65.50;101625.88;5065651;28;20052;-70
2023/04/25 08:56:40;;;;;;;7.30;2.15;;;;;;;8.94;65.27;101630.31;5054282;28;20133;-70
2023/04/25 08:59:07;;;;;;;6.60;1.63;;;;;;;8.87;65.38;101641.06;5067546;28;20056;-70
2023/04/25 09:01:35;;;;;;;5.70;1.70;;;;;;;8.73;63.87;101649.03;5068305;28;20066;-70
2023/04/25 09:04:00;;;;;;;7.90;1.52;;;;;;;8.73;63.26;101643.59;5075069;28;20417;-70
2023/04/25 09:06:27;;;;;;;11.05;2.63;;;;;;;8.76;66.16;101648.72;5069146;28;20044;-69
2023/04/25 09:08:53;;;;;;;10.77;2.00;;;;;;;8.86;65.37;101665.84;5063682;28;20032;-69
2023/04/25 09:11:19;;;;;;;9.23;1.87;;;;;;;8.94;63.78;101658.50;5072599;28;20020;-70
2023/04/25 09:13:45;;;;;;;8.70;1.65;;;;;;;8.96;65.93;101667.38;5074803;28;20495;-69
2023/04/25 09:16:10;;;;;;;8.20;2.20;;;;;;;9.01;64.56;101670.47;5066985;28;20028;-69
2023/04/25 09:18:36;;;;;;;10.77;2.03;;;;;;;9.17;65.56;101675.09;5064127;28;20090;-70
2023/04/25 09:21:07;;;;;;;11.20;1.77;;;;;;;9.27;61.78;101678.56;5063682;28;20089;-70
2023/04/25 09:23:40;;;;;;;11.82;1.88;;;;;;;9.94;61.95;101662.66;5069194;28;20060;-69
2023/04/25 09:26:07;;;;;;;5.60;1.50;;;;;;;10.17;59.04;101662.81;5068629;28;20044;-69
2023/04/25 09:28:32;;;;;;;14.38;1.90;;;;;;;10.18;59.92;101667.25;5076103;28;20024;-70
2023/04/25 09:30:58;;;;;;;15.03;2.17;;;;;;;9.96;60.23;101670.69;5069956;28;20496;-69
2023/04/25 09:33:31;;;;;;;9.50;1.50;;;;;;;9.77;61.60;101674.66;5077745;28;20142;-69
2023/04/25 09:36:08;;;;;;;6.78;1.42;;;;;;;9.28;63.12;101670.19;5076512;28;20028;-69
2023/04/25 09:38:46;;;;;;;11.82;2.08;;;;;;;8.94;65.89;101690.44;5072974;28;20028;-69
2023/04/25 09:41:12;;;;;;;16.77;2.03;;;;;;;9.04;67.09;101682.94;5066395;28;20037;-69
2023/04/25 09:43:38;;;;;;;19.30;1.75;;;;;;;9.07;66.79;101682.63;5069700;28;20098;-69
2023/04/25 09:46:08;;;;;;;10.52;2.33;;;;;;;9.20;66.40;101681.13;5070707;28;20050;-69
2023/04/25 09:48:34;;;;;;;6.93;1.85;;;;;;;9.15;63.45;101679.91;5075993;28;20119;-69
2023/04/25 09:51:15;;;;;;;17.80;2.45;;;;;;;9.63;61.72;101682.69;5070096;28;20103;-69
2023/04/25 09:53:43;;;;;;;6.03;1.98;;;;;;;10.15;60.57;101679.41;5082052;28;20017;-69
2023/04/25 09:56:10;;;;;;;10.98;1.80;;;;;;;10.48;59.14;101692.00;5072058;28;20081;-69
2023/04/25 09:58:37;;;;;;;11.07;1.80;;;;;;;10.37;56.36;101694.25;5073318;28;20031;-70
2023/04/25 10:01:08;;;;;;;8.80;1.65;;;;;;;10.52;54.98;101698.00;5073848;28;20390;-70
2023/04/25 10:03:35;;;;;;;8.48;1.65;;;;;;;10.88;54.29;101696.47;5080448;28;20097;-69
2023/04/25 10:06:07;;;;;;;6.13;1.52;;;;;;;10.84;55.77;101697.88;5072690;28;20044;-70
2023/04/25 10:08:35;;;;;;;5.68;1.58;;;;;;;10.72;56.68;101694.66;5075788;28;20473;-69
2023/04/25 10:11:06;;;;;;;6.63;1.70;;;;;;;10.49;55.27;101703.81;5072071;28;20044;-70
2023/04/25 10:13:33;;;;;;;7.05;1.77;;;;;;;10.19;61.05;101718.28;5074217;28;20032;-70
2023/04/25 10:16:00;;;;;;;16.38;2.03;;;;;;;9.79;66.33;101715.53;5068430;28;20101;-71
2023/04/25 10:18:27;;;;;;;10.60;1.80;;;;;;;9.60;68.34;101732.28;5078603;28;20058;-69
2023/04/25 10:21:01;;;;;;;13.02;2.20;;;;;;;9.56;69.07;101725.44;5064410;28;20035;-69
2023/04/25 10:23:29;;;;;;;8.80;1.65;;;;;;;9.96;70.11;101725.44;5068651;28;20028;-69
2023/04/25 10:25:55;;;;;;;6.78;1.95;;;;;;;10.36;67.43;101734.47;5072474;28;20056;-69
2023/04/25 10:28:20;;;;;;;10.67;1.77;;;;;;;10.83;65.14;101735.38;5078950;28;20055;-70
2023/04/25 10:31:08;;;;;;;9.57;1.77;;;;;;;10.46;66.50;101731.56;5078040;28;20048;-70
2023/04/25 10:33:38;;;;;;;15.68;2.67;;;;;;;10.04;66.70;101729.03;5070674;28;20386;-70
2023/04/25 10:36:14;;;;;;;9.05;1.50;;;;;;;10.35;64.61;101730.03;5071458;28;20028;-69
2023/04/25 10:38:42;;;;;;;7.37;1.77;;;;;;;10.78;63.33;101736.94;5058406;28;20024;-69
2023/04/25 10:41:09;;;;;;;8.00;1.70;;;;;;;10.85;67.03;101724.22;5069101;28;20032;-70
2023/04/25 10:43:43;;;;;;;7.80;1.98;;;;;;;11.11;63.25;101730.28;5075932;28;20107;-69
2023/04/25 10:46:15;;;;;;;13.45;1.80;;;;;;;11.39;61.86;101728.75;5064713;28;20025;-69
2023/04/25 10:48:55;;;;;;;11.73;1.80;;;;;;;11.73;61.78;101729.22;5065762;28;20075;-69
2023/04/25 10:51:32;;;;;;;7.40;2.33;;;;;;;11.47;61.65;101723.22;5059159;28;20138;-68
2023/04/25 10:53:57;;;;;;;8.82;2.00;;;;;;;11.40;61.06;101723.09;5067069;28;20023;-68
2023/04/25 10:56:26;;;;;;;9.53;2.57;;;;;;;11.05;63.13;101728.25;5070033;28;20020;-68
2023/04/25 10:59:02;;;;;;;10.77;1.75;;;;;;;10.79;64.29;101727.69;5073411;28;20030;-70
2023/04/25 11:01:39;;;;;;;15.38;2.67;;;;;;;10.28;66.77;101731.78;5069573;28;20032;-70
2023/04/25 11:04:04;;;;;;;5.25;1.50;;;;;;;9.85;69.36;101747.66;5072958;28;20421;-69
2023/04/25 11:07:07;;;;;;;13.68;2.17;;;;;;;9.56;73.21;101742.69;5066692;28;20024;-70
2023/04/25 11:09:38;;;;;;;13.82;1.90;;;;;;;9.60;72.31;101749.53;5054021;28;20040;-71
2023/04/25 11:12:05;;;;;;;10.60;2.05;;;;;;;9.70;74.44;101746.63;5073276;28;20029;-70
2023/04/25 11:14:30;;;;;;;6.85;1.85;;;;;;;9.91;73.99;101752.44;5068509;28;20485;-69
2023/04/25 11:16:57;;;;;;;9.00;2.50;;;;;;;10.03;67.70;101751.09;5071137;28;20120;-68
2023/04/25 11:19:23;;;;;;;8.60;1.92;;;;;;;9.80;66.06;101758.25;5079059;28;20107;-69
2023/04/25 11:21:49;;;;;;;14.15;2.22;;;;;;;10.00;63.66;101756.91;5066027;28;20482;-69